Time;durP1;ratioP1;P1;durP2;ratioP2;P2;SDS_P1;SDS_P2;PMS_P1;PMS_P2;Temp;Humidity;BMP_temperature;BMP_pressure;BME280_temperature;BME280_humidity;BME280_pressure;Samples;Min_cycle;Max_cycle;Signal;HPM_P1;HPM_P2
2022/08/14 00:02:25;;;;;;;27.93;24.87;;;;;;;18.01;78.74;100482.23;1655644;84;21059;-74
2022/08/14 00:04:51;;;;;;;25.95;23.15;;;;;;;18.01;78.77;100490.33;1641652;85;21089;-74
2022/08/14 00:07:17;;;;;;;27.00;23.67;;;;;;;17.94;78.83;100489.02;1670030;83;20916;-74
2022/08/14 00:09:44;;;;;;;28.15;23.57;;;;;;;17.93;78.92;100481.95;1653570;83;21037;-74
2022/08/14 00:12:10;;;;;;;26.05;22.95;;;;;;;17.96;78.96;100484.22;1653031;84;21548;-73
2022/08/14 00:14:36;;;;;;;28.92;25.77;;;;;;;17.95;79.01;100479.34;1704436;82;21608;-74
2022/08/14 00:17:02;;;;;;;28.05;23.87;;;;;;;17.93;79.05;100479.26;1690830;83;21512;-74
2022/08/14 00:19:28;;;;;;;29.02;23.65;;;;;;;17.92;79.11;100481.13;1678004;83;21626;-74
2022/08/14 00:21:54;;;;;;;30.57;24.45;;;;;;;17.93;79.15;100480.09;1673504;82;20976;-74
2022/08/14 00:24:21;;;;;;;27.00;24.12;;;;;;;17.92;79.21;100472.20;1669145;83;21015;-73
2022/08/14 00:26:47;;;;;;;28.07;25.12;;;;;;;17.90;79.28;100477.00;1682277;83;21229;-74
2022/08/14 00:29:13;;;;;;;29.00;24.98;;;;;;;17.87;79.33;100478.78;1682814;82;21096;-74
2022/08/14 00:31:39;;;;;;;31.93;25.75;;;;;;;17.86;79.36;100479.81;1666078;83;21126;-74
2022/08/14 00:34:05;;;;;;;28.10;24.90;;;;;;;17.82;79.41;100478.58;1646059;84;20939;-74
2022/08/14 00:36:31;;;;;;;30.82;25.55;;;;;;;17.84;79.48;100479.19;1677439;83;21075;-74
2022/08/14 00:38:57;;;;;;;30.80;25.68;;;;;;;17.86;79.49;100482.52;1678702;83;21102;-74
2022/08/14 00:41:23;;;;;;;33.18;26.12;;;;;;;17.85;79.54;100483.55;1653477;83;21035;-74
2022/08/14 00:43:49;;;;;;;29.65;25.20;;;;;;;17.85;79.62;100480.33;1644451;83;21162;-74
2022/08/14 00:46:15;;;;;;;29.25;25.32;;;;;;;17.85;79.66;100477.63;1684581;83;21083;-74
2022/08/14 00:48:41;;;;;;;29.63;24.90;;;;;;;17.84;79.71;100471.92;1665114;84;20968;-74
2022/08/14 00:51:08;;;;;;;30.02;25.70;;;;;;;17.82;79.78;100470.48;1679175;83;21206;-73
2022/08/14 00:53:36;;;;;;;29.65;26.10;;;;;;;17.81;79.81;100466.12;1674790;84;21082;-76
2022/08/14 00:56:03;;;;;;;30.08;25.17;;;;;;;17.79;79.87;100460.13;1644467;84;21120;-76
2022/08/14 00:58:29;;;;;;;26.70;24.00;;;;;;;17.79;79.91;100465.53;1655566;85;21045;-76
2022/08/14 01:01:01;;;;;;;28.77;25.02;;;;;;;17.80;79.97;100459.09;1658805;85;21027;-76
2022/08/14 01:03:30;;;;;;;27.30;24.43;;;;;;;17.76;79.97;100455.17;1638789;84;21094;-76
2022/08/14 01:05:57;;;;;;;29.40;25.35;;;;;;;17.76;80.06;100457.87;1649257;85;21602;-76
2022/08/14 01:08:26;;;;;;;27.58;24.37;;;;;;;17.74;80.07;100457.23;1653061;85;21091;-77
2022/08/14 01:10:54;;;;;;;28.27;23.38;;;;;;;17.68;80.13;100460.29;1652679;85;21054;-76
2022/08/14 01:13:27;;;;;;;28.60;23.32;;;;;;;17.63;80.17;100460.60;1655887;85;21088;-76
2022/08/14 01:15:55;;;;;;;26.17;22.60;;;;;;;17.65;80.25;100453.14;1646801;85;21839;-77
2022/08/14 01:21:16;;;;;;;25.72;21.45;;;;;;;17.67;80.32;100456.44;1676156;83;21392;-76
2022/08/14 01:23:38;;;;;;;26.82;22.65;;;;;;;17.65;80.35;100448.58;1659437;83;21158;-76
2022/08/14 01:26:05;;;;;;;26.05;21.82;;;;;;;17.66;80.37;100455.61;1654937;83;21046;-76
2022/08/14 01:28:33;;;;;;;23.52;21.00;;;;;;;17.61;80.36;100450.56;1655228;83;21157;-76
2022/08/14 01:30:59;;;;;;;24.23;21.50;;;;;;;17.59;80.43;100445.92;1652437;83;21068;-77
2022/08/14 01:33:28;;;;;;;26.55;22.30;;;;;;;17.61;80.46;100438.43;1681509;83;21090;-76
2022/08/14 01:35:59;;;;;;;23.87;20.95;;;;;;;17.60;80.46;100434.90;1672102;83;21086;-76
2022/08/14 01:38:30;;;;;;;25.65;20.57;;;;;;;17.56;80.50;100432.84;1666674;83;21221;-76
2022/08/14 01:40:54;;;;;;;25.75;19.85;;;;;;;17.53;80.53;100433.23;1651315;83;21280;-76
2022/08/14 01:43:20;;;;;;;23.20;20.77;;;;;;;17.51;80.59;100433.98;1641998;84;21079;-76
2022/08/14 01:45:50;;;;;;;22.52;18.80;;;;;;;17.52;80.60;100433.78;1672466;83;21054;-76
2022/08/14 01:48:14;;;;;;;28.62;20.77;;;;;;;17.51;80.64;100431.29;1654819;83;21150;-75
2022/08/14 01:50:41;;;;;;;25.27;19.55;;;;;;;17.47;80.64;100424.98;1681862;83;21124;-76
2022/08/14 01:53:08;;;;;;;22.22;19.55;;;;;;;17.46;80.69;100430.05;1644249;83;21935;-76
2022/08/14 01:55:34;;;;;;;23.30;19.35;;;;;;;17.49;80.70;100426.93;1646513;85;21067;-76
2022/08/14 01:58:00;;;;;;;25.32;21.23;;;;;;;17.48;80.74;100431.20;1670450;83;21053;-76
2022/08/14 02:00:28;;;;;;;25.05;21.62;;;;;;;17.41;80.76;100429.89;1642950;84;21047;-75
2022/08/14 02:02:55;;;;;;;24.70;20.12;;;;;;;17.36;80.80;100425.64;1666606;84;21706;-76
2022/08/14 02:05:29;;;;;;;23.80;20.32;;;;;;;17.33;80.87;100428.77;1641538;84;21161;-75
2022/08/14 02:07:52;;;;;;;21.55;18.45;;;;;;;17.30;80.90;100425.67;1655341;84;21067;-75
2022/08/14 02:10:20;;;;;;;29.82;20.55;;;;;;;17.28;80.95;100423.17;1638373;83;21067;-75
2022/08/14 02:12:47;;;;;;;24.35;18.98;;;;;;;17.27;80.99;100418.02;1651339;84;21010;-75
2022/08/14 02:15:16;;;;;;;21.23;18.52;;;;;;;17.21;81.02;100416.15;1658368;83;21256;-76
2022/08/14 02:17:41;;;;;;;21.75;19.45;;;;;;;17.20;81.05;100409.95;1645833;84;21071;-75
2022/08/14 02:20:09;;;;;;;20.20;18.20;;;;;;;17.18;81.07;100414.71;1623865;84;21127;-76
2022/08/14 02:22:37;;;;;;;19.40;17.37;;;;;;;17.12;81.09;100415.57;1632235;84;20991;-76
2022/08/14 02:25:04;;;;;;;22.87;17.60;;;;;;;17.04;81.13;100422.52;1664640;83;21013;-76
2022/08/14 02:27:30;;;;;;;19.50;16.75;;;;;;;17.01;81.22;100417.56;1645233;84;21049;-76
2022/08/14 02:29:56;;;;;;;18.23;16.30;;;;;;;17.02;81.29;100415.70;1629713;85;21172;-76
2022/08/14 02:32:22;;;;;;;18.15;16.25;;;;;;;16.98;81.34;100414.78;1661841;84;20978;-76
2022/08/14 02:34:48;;;;;;;21.35;17.10;;;;;;;16.95;81.39;100419.77;1663422;83;21028;-76
2022/08/14 02:37:14;;;;;;;20.08;17.23;;;;;;;16.96;81.46;100409.27;1663391;84;21638;-76
2022/08/14 02:39:44;;;;;;;22.17;16.25;;;;;;;17.01;81.50;100414.88;1683160;83;21091;-76
2022/08/14 02:42:16;;;;;;;18.42;15.75;;;;;;;17.01;81.54;100415.39;1658685;84;21735;-75
2022/08/14 02:44:43;;;;;;;19.17;17.05;;;;;;;16.98;81.56;100408.05;1672317;83;21030;-76
2022/08/14 02:47:09;;;;;;;20.62;16.40;;;;;;;16.97;81.62;100399.64;1647771;84;21021;-76
2022/08/14 02:49:36;;;;;;;21.50;17.73;;;;;;;16.95;81.63;100400.91;1628942;85;21049;-76
2022/08/14 02:52:06;;;;;;;20.50;16.65;;;;;;;16.89;81.66;100398.52;1634896;85;21002;-76
2022/08/14 02:54:33;;;;;;;21.57;17.10;;;;;;;16.88;81.68;100409.00;1623672;86;21554;-76
2022/08/14 02:56:59;;;;;;;20.68;18.10;;;;;;;16.83;81.71;100402.06;1630313;85;21130;-76
2022/08/14 02:59:30;;;;;;;21.35;18.12;;;;;;;16.84;81.78;100400.20;1635581;86;21087;-75
2022/08/14 03:01:56;;;;;;;20.92;17.52;;;;;;;16.83;81.81;100397.19;1637121;85;21051;-76
2022/08/14 03:04:23;;;;;;;20.90;18.17;;;;;;;16.84;81.83;100396.98;1628468;85;21161;-75
2022/08/14 03:06:49;;;;;;;21.17;18.85;;;;;;;16.84;81.88;100398.85;1628004;86;21112;-76
2022/08/14 03:11:41;;;;;;;25.37;19.92;;;;;;;16.84;81.92;100398.34;1773832;79;22014;-76
2022/08/14 03:14:10;;;;;;;22.45;20.05;;;;;;;16.78;81.96;100397.01;1728584;81;21042;-76
2022/08/14 03:16:35;;;;;;;27.52;20.60;;;;;;;16.80;81.98;100394.92;1729621;80;21456;-75
2022/08/14 03:19:02;;;;;;;22.10;19.67;;;;;;;16.81;81.99;100391.20;1728566;81;21062;-76
2022/08/14 03:21:30;;;;;;;22.98;19.75;;;;;;;16.80;82.02;100386.84;1729622;80;21066;-76
2022/08/14 03:24:10;;;;;;;20.97;18.27;;;;;;;16.79;82.03;100384.66;1727891;80;21006;-75
2022/08/14 03:26:39;;;;;;;21.73;18.52;;;;;;;16.75;82.05;100389.32;1739260;80;21046;-76
2022/08/14 03:29:05;;;;;;;22.32;17.37;;;;;;;16.72;82.08;100385.70;1727822;80;21065;-76
2022/08/14 03:31:31;;;;;;;23.52;17.82;;;;;;;16.72;82.11;100385.70;1732639;81;21109;-76
2022/08/14 03:33:57;;;;;;;20.10;18.10;;;;;;;16.72;82.16;100384.36;1733460;80;20958;-76
2022/08/14 03:36:24;;;;;;;23.30;18.90;;;;;;;16.69;82.15;100376.70;1731576;80;20873;-75
2022/08/14 03:38:52;;;;;;;22.27;19.87;;;;;;;16.65;82.18;100379.50;1731241;81;21015;-75
2022/08/14 03:41:23;;;;;;;20.37;18.15;;;;;;;16.62;82.19;100378.58;1737773;80;21232;-75
2022/08/14 03:43:54;;;;;;;23.60;19.52;;;;;;;16.59;82.22;100374.97;1732611;81;20999;-76
2022/08/14 03:46:20;;;;;;;21.95;19.52;;;;;;;16.62;82.31;100379.41;1737199;80;21019;-75
2022/08/14 03:48:46;;;;;;;20.40;18.32;;;;;;;16.65;82.35;100375.47;1729728;80;21086;-75
2022/08/14 03:51:13;;;;;;;22.30;19.48;;;;;;;16.62;82.35;100367.81;1729360;80;20963;-75
2022/08/14 03:53:42;;;;;;;21.68;18.07;;;;;;;16.60;82.40;100369.90;1729486;81;21123;-75
2022/08/14 03:56:17;;;;;;;21.40;17.60;;;;;;;16.60;82.43;100372.59;1734545;81;21018;-75
2022/08/14 03:58:44;;;;;;;26.02;18.20;;;;;;;16.61;82.44;100376.92;1731826;81;21042;-75
2022/08/14 04:01:12;;;;;;;22.67;19.40;;;;;;;16.57;82.46;100379.20;1731157;80;21460;-76
2022/08/14 04:03:38;;;;;;;24.72;19.60;;;;;;;16.59;82.50;100379.00;1736339;80;21046;-76
2022/08/14 04:06:07;;;;;;;20.43;18.42;;;;;;;16.58;82.48;100385.41;1740364;81;21126;-75
2022/08/14 04:08:36;;;;;;;21.40;19.10;;;;;;;16.64;82.57;100385.95;1757198;80;20968;-76
2022/08/14 04:11:01;;;;;;;24.52;20.70;;;;;;;16.68;82.62;100387.99;1772147;79;21027;-75
2022/08/14 04:13:30;;;;;;;20.95;18.67;;;;;;;16.73;82.64;100386.86;1780044;79;20984;-75
2022/08/14 04:15:56;;;;;;;26.05;20.32;;;;;;;16.79;82.68;100379.78;1772346;80;21476;-76
2022/08/14 04:18:22;;;;;;;24.65;19.60;;;;;;;16.83;82.69;100377.81;1776037;80;22259;-75
2022/08/14 04:20:48;;;;;;;23.47;20.17;;;;;;;16.90;82.74;100373.23;1763245;78;21696;-76
2022/08/14 04:23:15;;;;;;;23.90;21.33;;;;;;;17.09;82.85;100372.05;1783774;79;21059;-76
2022/08/14 04:25:41;;;;;;;23.40;20.90;;;;;;;17.33;82.88;100374.85;1778046;78;21039;-76
2022/08/14 04:28:10;;;;;;;27.70;21.23;;;;;;;17.36;82.70;100371.72;1783805;79;20924;-76
2022/08/14 04:30:41;;;;;;;27.42;21.35;;;;;;;17.36;82.61;100375.77;1771504;79;21168;-76
2022/08/14 04:33:06;;;;;;;29.70;22.15;;;;;;;17.36;82.59;100374.42;1763704;80;21049;-76
2022/08/14 04:35:33;;;;;;;30.17;23.67;;;;;;;17.37;82.62;100370.69;1770540;80;20983;-76
2022/08/14 04:43:39;;;;;;;27.20;24.10;;;;;;;17.36;82.63;100351.50;1771921;78;21179;-76
2022/08/14 04:46:12;;;;;;;25.97;22.27;;;;;;;17.36;82.61;100351.50;1778971;80;21058;-76
2022/08/14 04:48:39;;;;;;;26.60;22.62;;;;;;;17.42;82.62;100354.68;1776745;79;20999;-76
2022/08/14 04:51:07;;;;;;;30.10;25.72;;;;;;;17.46;82.59;100355.08;1765204;78;21058;-76
2022/08/14 04:53:35;;;;;;;26.68;23.83;;;;;;;17.52;82.62;100349.36;1776610;80;20988;-76
2022/08/14 04:56:01;;;;;;;31.35;26.75;;;;;;;17.66;82.65;100345.02;1756768;80;21132;-76
2022/08/14 04:58:29;;;;;;;29.70;26.73;;;;;;;17.86;82.67;100342.21;1763958;80;21099;-76
2022/08/14 05:00:56;;;;;;;34.15;27.58;;;;;;;18.27;82.77;100347.06;1769789;78;21086;-76
2022/08/14 05:03:25;;;;;;;30.00;25.30;;;;;;;18.91;82.61;100342.61;1758565;80;21011;-76
2022/08/14 05:05:54;;;;;;;27.80;24.90;;;;;;;19.34;82.15;100339.78;1780797;80;21095;-76
2022/08/14 05:08:21;;;;;;;26.15;23.47;;;;;;;19.67;81.95;100343.40;1773351;80;21788;-76
2022/08/14 05:10:53;;;;;;;30.40;23.30;;;;;;;20.10;81.91;100343.98;1773603;78;21026;-76
2022/08/14 05:13:23;;;;;;;23.62;21.12;;;;;;;20.15;81.90;100338.70;1782011;79;21112;-77
2022/08/14 05:15:51;;;;;;;26.17;22.70;;;;;;;20.08;81.84;100337.98;1769480;79;21460;-77
2022/08/14 05:18:23;;;;;;;25.75;22.35;;;;;;;19.93;81.62;100333.54;1769321;79;21014;-76
2022/08/14 05:20:54;;;;;;;26.50;22.20;;;;;;;19.74;81.45;100331.95;1766712;79;21850;-76
2022/08/14 05:23:26;;;;;;;24.52;21.87;;;;;;;19.61;81.28;100336.21;1767234;79;21044;-76
2022/08/14 05:25:58;;;;;;;26.90;22.20;;;;;;;19.57;81.15;100339.08;1761816;79;21015;-76
2022/08/14 05:28:25;;;;;;;21.57;19.55;;;;;;;19.57;81.01;100343.13;1763253;80;21054;-76
2022/08/14 05:30:54;;;;;;;23.70;21.00;;;;;;;19.57;80.85;100336.37;1764320;79;21010;-76
2022/08/14 05:33:23;;;;;;;23.52;20.35;;;;;;;19.60;80.71;100334.58;1774345;79;21640;-76
2022/08/14 05:35:51;;;;;;;22.40;20.10;;;;;;;19.59;80.51;100342.39;1763903;79;21018;-76
2022/08/14 05:38:20;;;;;;;21.55;19.25;;;;;;;19.61;80.40;100342.45;1764114;79;21481;-76
2022/08/14 05:40:47;;;;;;;22.25;19.50;;;;;;;19.60;80.27;100345.41;1764785;79;21050;-76
2022/08/14 05:43:13;;;;;;;23.32;19.32;;;;;;;19.60;80.18;100337.28;1731003;81;21044;-77
2022/08/14 05:45:39;;;;;;;21.85;19.15;;;;;;;19.57;80.04;100340.42;1720238;83;21141;-76
2022/08/14 05:48:05;;;;;;;21.80;18.52;;;;;;;19.54;79.93;100338.19;1700583;83;21050;-76
2022/08/14 05:50:33;;;;;;;22.07;19.75;;;;;;;19.57;79.84;100332.31;1715024;83;21368;-76
2022/08/14 05:53:00;;;;;;;20.20;18.27;;;;;;;19.57;79.78;100335.02;1723605;81;21520;-76
2022/08/14 05:55:26;;;;;;;20.65;17.92;;;;;;;19.64;79.70;100339.80;1715571;81;21054;-76
2022/08/14 05:57:57;;;;;;;23.42;17.67;;;;;;;19.70;79.66;100337.55;1725241;82;21156;-76
2022/08/14 06:00:36;;;;;;;25.12;17.10;;;;;;;19.76;79.62;100337.97;1715522;82;21006;-76
2022/08/14 06:03:05;;;;;;;18.65;16.42;;;;;;;19.87;79.57;100330.41;1733147;82;21092;-77
2022/08/14 06:05:31;;;;;;;17.95;15.23;;;;;;;19.95;79.52;100332.77;1722912;82;21480;-76
2022/08/14 06:07:58;;;;;;;21.25;16.45;;;;;;;19.95;79.44;100336.30;1725286;81;21492;-77
2022/08/14 06:10:25;;;;;;;20.85;16.50;;;;;;;20.02;79.35;100333.48;1725005;82;21250;-77
2022/08/14 06:12:51;;;;;;;17.82;16.12;;;;;;;20.04;79.28;100330.03;1727894;83;21010;-77
2022/08/14 06:15:17;;;;;;;18.40;16.23;;;;;;;20.12;79.21;100336.47;1730489;82;21022;-77
2022/08/14 06:17:51;;;;;;;17.85;15.85;;;;;;;20.17;79.11;100343.34;1734688;80;20884;-77
2022/08/14 06:20:17;;;;;;;17.02;15.25;;;;;;;20.20;78.99;100333.39;1721856;83;21061;-77
2022/08/14 06:22:44;;;;;;;24.10;15.48;;;;;;;20.23;78.91;100335.63;1727577;81;21235;-77
2022/08/14 06:25:11;;;;;;;15.95;13.05;;;;;;;20.29;78.84;100328.50;1738922;81;21529;-77
2022/08/14 06:27:40;;;;;;;13.53;12.23;;;;;;;20.28;78.69;100330.38;1739423;81;21046;-77
2022/08/14 06:30:09;;;;;;;15.72;13.05;;;;;;;20.27;78.62;100332.78;1729926;83;21009;-77
2022/08/14 06:32:35;;;;;;;17.32;13.45;;;;;;;20.23;78.50;100327.50;1740680;80;21547;-76
2022/08/14 06:35:05;;;;;;;15.50;13.60;;;;;;;20.28;78.48;100316.84;1730173;81;21804;-76
2022/08/14 06:37:46;;;;;;;22.52;17.87;;;;;;;20.31;78.40;100313.66;1730990;80;20981;-77
2022/08/14 06:40:25;;;;;;;17.30;12.95;;;;;;;20.34;78.35;100309.11;1729953;81;21463;-77
2022/08/14 06:42:52;;;;;;;16.75;13.25;;;;;;;20.43;78.29;100303.66;1712399;82;21005;-77
2022/08/14 06:45:18;;;;;;;14.80;12.25;;;;;;;20.52;78.16;100301.92;1715306;82;21126;-77
2022/08/14 06:47:45;;;;;;;13.68;11.80;;;;;;;20.61;78.05;100297.80;1714127;82;21476;-77
2022/08/14 06:50:14;;;;;;;14.40;12.35;;;;;;;20.69;77.99;100296.09;1720028;82;21053;-78
2022/08/14 06:52:40;;;;;;;13.60;12.03;;;;;;;20.74;77.90;100293.47;1725208;81;21090;-78
2022/08/14 06:55:08;;;;;;;14.68;11.60;;;;;;;20.80;77.79;100296.57;1740466;81;21011;-78
2022/08/14 06:57:40;;;;;;;14.95;11.25;;;;;;;20.79;77.69;100284.10;1749329;81;21034;-78
2022/08/14 07:00:22;;;;;;;14.50;10.82;;;;;;;20.82;77.58;100279.03;1742536;80;21392;-77
2022/08/14 07:05:45;;;;;;;14.00;11.03;;;;;;;20.80;77.33;100276.24;1709041;83;21012;-71
2022/08/14 07:08:23;;;;;;;15.35;10.23;;;;;;;20.83;77.25;100281.18;1720538;81;20998;-71
2022/08/14 07:10:52;;;;;;;11.00;9.90;;;;;;;20.79;77.09;100280.04;1711970;82;21532;-70
2022/08/14 07:13:18;;;;;;;13.83;11.27;;;;;;;20.80;76.98;100282.48;1723316;83;21410;-71
2022/08/14 07:15:49;;;;;;;16.87;10.13;;;;;;;20.80;76.80;100278.42;1729802;80;21025;-71
2022/08/14 07:18:28;;;;;;;12.63;9.73;;;;;;;20.82;76.70;100283.63;1726125;83;21403;-71
2022/08/14 07:20:55;;;;;;;16.70;10.80;;;;;;;20.83;76.55;100292.02;1719917;82;21042;-71
2022/08/14 07:23:25;;;;;;;14.65;9.53;;;;;;;20.86;76.40;100290.22;1733411;82;21090;-71
2022/08/14 07:25:55;;;;;;;16.23;11.40;;;;;;;20.81;76.15;100284.67;1725434;81;21569;-71
2022/08/14 07:28:31;;;;;;;15.43;10.85;;;;;;;20.80;76.00;100289.80;1727312;81;21105;-71
2022/08/14 07:30:58;;;;;;;13.60;10.05;;;;;;;20.85;75.88;100288.56;1710679;82;21025;-71
2022/08/14 07:33:26;;;;;;;15.43;10.68;;;;;;;20.90;75.74;100288.64;1710848;82;21095;-71
2022/08/14 07:35:53;;;;;;;12.58;9.78;;;;;;;20.95;75.60;100290.12;1730018;83;21022;-71
2022/08/14 07:38:20;;;;;;;12.68;10.65;;;;;;;21.00;75.46;100288.88;1728758;82;21546;-71
2022/08/14 07:40:49;;;;;;;12.45;10.68;;;;;;;21.05;75.37;100279.47;1750824;80;20995;-71
2022/08/14 07:43:15;;;;;;;16.65;10.03;;;;;;;21.15;75.23;100278.88;1736838;81;21578;-71
2022/08/14 07:45:41;;;;;;;13.80;10.75;;;;;;;21.24;75.09;100271.48;1728447;83;20911;-71
2022/08/14 07:48:07;;;;;;;10.58;9.53;;;;;;;21.38;74.92;100267.94;1729192;81;21017;-71
2022/08/14 07:50:33;;;;;;;15.93;10.25;;;;;;;21.47;74.78;100275.13;1737362;80;21468;-71
2022/08/14 07:53:00;;;;;;;16.30;9.28;;;;;;;21.69;74.70;100276.08;1743147;81;21018;-71
2022/08/14 07:55:26;;;;;;;11.40;9.70;;;;;;;21.83;74.48;100276.05;1740168;81;21502;-71
2022/08/14 07:57:53;;;;;;;13.10;9.43;;;;;;;21.96;74.28;100264.88;1745144;80;21018;-71
2022/08/14 08:00:22;;;;;;;15.08;9.33;;;;;;;21.99;73.90;100261.66;1711130;83;21033;-71
2022/08/14 08:02:51;;;;;;;12.33;9.70;;;;;;;22.06;73.72;100256.88;1753888;80;22634;-71
2022/08/14 08:05:17;;;;;;;17.00;9.95;;;;;;;22.39;73.62;100256.84;1726456;82;21092;-71
2022/08/14 08:07:45;;;;;;;14.43;9.10;;;;;;;22.84;73.17;100255.28;1754294;80;21619;-72
2022/08/14 08:10:32;;;;;;;13.10;9.95;;;;;;;22.91;72.65;100259.16;1726830;83;21017;-71
2022/08/14 08:13:08;;;;;;;12.43;8.95;;;;;;;22.92;72.24;100260.81;1711535;82;21547;-71
2022/08/14 08:15:37;;;;;;;19.05;9.65;;;;;;;22.99;71.85;100268.78;1711490;82;21660;-71
2022/08/14 08:18:04;;;;;;;9.60;8.60;;;;;;;23.03;71.50;100269.92;1716101;83;21002;-71
2022/08/14 08:20:36;;;;;;;11.65;8.55;;;;;;;23.09;71.14;100267.00;1716100;80;21043;-71
2022/08/14 08:23:03;;;;;;;11.95;8.58;;;;;;;23.15;70.78;100266.53;1712686;82;21059;-71
2022/08/14 08:25:31;;;;;;;10.20;9.18;;;;;;;23.21;70.39;100265.50;1714536;80;20974;-71
2022/08/14 08:28:12;;;;;;;12.43;8.15;;;;;;;23.35;70.13;100263.48;1722417;82;21873;-71
2022/08/14 08:30:43;;;;;;;16.67;8.60;;;;;;;23.59;69.79;100257.73;1709268;81;21676;-71
2022/08/14 08:33:09;;;;;;;9.88;8.63;;;;;;;23.81;69.41;100248.95;1718233;80;21043;-73
2022/08/14 08:35:37;;;;;;;10.20;8.28;;;;;;;23.98;69.07;100248.27;1715181;80;20904;-72
2022/08/14 08:38:10;;;;;;;10.28;7.47;;;;;;;24.38;68.64;100248.54;1732013;82;21466;-72
2022/08/14 08:40:39;;;;;;;18.23;8.08;;;;;;;24.62;68.04;100240.78;1720404;80;22169;-72
2022/08/14 08:43:07;;;;;;;9.95;7.83;;;;;;;24.88;67.42;100240.34;1714056;82;21090;-72
2022/08/14 08:45:35;;;;;;;9.80;7.30;;;;;;;24.93;66.76;100239.02;1719802;80;21070;-73
2022/08/14 08:48:02;;;;;;;14.50;7.10;;;;;;;25.07;66.00;100238.78;1714621;82;21073;-72
2022/08/14 08:50:32;;;;;;;13.40;8.30;;;;;;;25.21;65.65;100235.81;1714562;82;21661;-73
2022/08/14 08:53:05;;;;;;;10.10;8.10;;;;;;;25.17;65.10;100229.25;1716698;80;22783;-73
2022/08/14 08:55:37;;;;;;;14.15;7.75;;;;;;;25.29;64.86;100231.74;1722718;82;21508;-72
2022/08/14 08:58:05;;;;;;;10.63;6.70;;;;;;;25.30;64.42;100228.72;1723681;81;21430;-72
2022/08/14 09:00:33;;;;;;;10.30;7.72;;;;;;;25.29;64.09;100229.83;1723996;82;21084;-72
2022/08/14 09:03:04;;;;;;;8.95;7.05;;;;;;;25.42;63.72;100226.28;1726690;80;21518;-72
2022/08/14 09:05:31;;;;;;;9.50;6.47;;;;;;;25.70;63.40;100224.41;1727139;82;21821;-72
2022/08/14 09:08:14;;;;;;;9.85;6.53;;;;;;;25.96;62.81;100226.05;1723385;82;21515;-72
2022/08/14 09:10:40;;;;;;;7.72;5.87;;;;;;;25.98;62.47;100220.30;1716542;81;21009;-72
2022/08/14 09:13:07;;;;;;;7.42;5.40;;;;;;;26.15;62.01;100212.61;1731217;81;20978;-72
2022/08/14 09:15:33;;;;;;;6.40;5.28;;;;;;;26.21;61.26;100211.55;1751521;81;21554;-72
2022/08/14 09:17:59;;;;;;;12.25;5.12;;;;;;;26.28;60.92;100201.94;1737451;81;22670;-72
2022/08/14 09:20:25;;;;;;;6.50;4.78;;;;;;;26.43;60.38;100203.80;1739399;80;20997;-72
2022/08/14 09:22:52;;;;;;;7.95;5.53;;;;;;;26.69;60.14;100204.53;1734851;81;20997;-72
2022/08/14 09:25:18;;;;;;;12.30;5.25;;;;;;;26.82;59.56;100197.10;1730480;81;21512;-73
2022/08/14 09:27:44;;;;;;;5.30;3.70;;;;;;;27.08;59.25;100191.77;1738344;81;21046;-72
2022/08/14 09:30:11;;;;;;;10.13;4.42;;;;;;;27.19;58.56;100198.81;1742725;81;22430;-72
2022/08/14 09:33:07;;;;;;;7.58;4.78;;;;;;;27.12;57.79;100181.88;1729744;81;20988;-73
2022/08/14 09:36:13;;;;;;;7.40;4.75;;;;;;;27.19;57.37;100182.38;1711891;82;21054;-72
2022/08/14 09:39:13;;;;;;;6.05;3.90;;;;;;;27.29;56.99;100169.98;1730555;80;21019;-72
2022/08/14 09:42:17;;;;;;;6.70;3.65;;;;;;;27.50;56.51;100170.66;1738971;81;20946;-72
2022/08/14 09:45:16;;;;;;;5.90;3.22;;;;;;;27.71;55.98;100174.86;1727628;82;21721;-72
2022/08/14 09:47:51;;;;;;;5.90;2.70;;;;;;;27.69;55.23;100166.67;1717075;82;21061;-77
2022/08/14 09:50:34;;;;;;;7.97;3.15;;;;;;;27.80;54.75;100161.33;1713629;83;20928;-77
2022/08/14 09:53:05;;;;;;;5.83;2.87;;;;;;;27.93;54.26;100161.22;1736153;80;21071;-77
2022/08/14 09:55:37;;;;;;;11.88;3.77;;;;;;;27.95;53.59;100157.62;1730608;81;21113;-77
2022/08/14 09:58:15;;;;;;;7.65;3.65;;;;;;;27.90;52.96;100158.52;1734881;81;21888;-75
2022/08/14 10:00:50;;;;;;;4.45;2.98;;;;;;;27.84;52.81;100161.02;1729280;81;21030;-76
2022/08/14 10:03:31;;;;;;;9.43;3.77;;;;;;;27.88;52.38;100151.11;1730385;80;21425;-75
2022/08/14 10:06:12;;;;;;;8.00;4.72;;;;;;;27.93;51.96;100151.08;1725241;81;21401;-75
2022/08/14 10:08:49;;;;;;;5.20;3.10;;;;;;;27.95;51.79;100150.22;1729848;80;21494;-75
2022/08/14 10:11:23;;;;;;;11.60;3.60;;;;;;;28.00;51.50;100154.29;1721261;82;21877;-75
2022/08/14 10:13:53;;;;;;;6.10;3.30;;;;;;;28.06;51.27;100148.19;1718761;82;21035;-75
2022/08/14 10:16:29;;;;;;;;;;;;;;;28.01;50.70;100155.08;1727258;82;21013;-75
2022/08/14 10:19:14;;;;;;;7.17;3.42;;;;;;;27.91;50.77;100141.48;1737873;80;20238;-75
2022/08/14 10:22:07;;;;;;;5.45;3.50;;;;;;;27.98;50.79;100152.92;1720749;83;21034;-75
2022/08/14 10:24:45;;;;;;;3.33;3.05;;;;;;;28.07;50.54;100135.59;1710909;83;21974;-75
2022/08/14 10:27:22;;;;;;;4.95;3.05;;;;;;;28.17;50.13;100143.70;1730407;80;21082;-75
2022/08/14 10:29:53;;;;;;;6.28;3.22;;;;;;;28.29;49.68;100135.86;1737698;81;21042;-75
2022/08/14 10:32:21;;;;;;;4.47;3.17;;;;;;;28.49;49.50;100136.17;1727644;81;21331;-75
2022/08/14 10:34:48;;;;;;;7.37;3.45;;;;;;;28.71;49.21;100140.55;1725819;81;20984;-75
2022/08/14 10:37:16;;;;;;;8.95;3.60;;;;;;;28.75;48.90;100138.84;1725505;81;21991;-75
2022/08/14 10:40:00;;;;;;;5.53;3.10;;;;;;;28.74;48.57;100139.98;1701855;81;21037;-75
2022/08/14 10:42:37;;;;;;;3.77;3.27;;;;;;;28.69;48.39;100140.04;1734738;80;20994;-75
2022/08/14 10:45:05;;;;;;;3.83;3.35;;;;;;;28.61;48.24;100124.74;1706476;81;21398;-75
2022/08/14 10:47:39;;;;;;;9.03;3.83;;;;;;;28.50;48.03;100128.77;1743263;81;21039;-75
2022/08/14 10:50:02;;;;;;;11.63;4.20;;;;;;;28.39;48.10;100123.14;1722335;82;22061;-75
2022/08/14 10:52:31;;;;;;;6.95;3.75;;;;;;;28.33;47.72;100134.72;1724737;82;21050;-76
2022/08/14 10:55:15;;;;;;;9.57;3.87;;;;;;;28.41;48.08;100123.66;1727106;82;21032;-75
2022/08/14 10:57:56;;;;;;;5.72;3.65;;;;;;;28.55;48.14;100119.07;1721078;82;20991;-76
2022/08/14 11:00:27;;;;;;;7.08;3.60;;;;;;;28.50;48.13;100117.78;1734583;82;20973;-76
2022/08/14 11:03:09;;;;;;;8.58;3.80;;;;;;;28.46;48.21;100118.93;1725269;82;22395;-76
2022/08/14 11:05:47;;;;;;;7.05;3.80;;;;;;;28.53;48.27;100114.45;1732820;82;21480;-76
2022/08/14 11:08:14;;;;;;;5.05;3.47;;;;;;;28.72;48.23;100109.80;1726608;82;20939;-76
2022/08/14 11:10:48;;;;;;;4.50;3.60;;;;;;;28.78;47.98;100100.41;1720176;82;21023;-76
2022/08/14 11:13:22;;;;;;;11.60;3.85;;;;;;;28.97;47.92;100099.81;1726663;82;20923;-75
2022/08/14 11:15:49;;;;;;;9.63;4.50;;;;;;;29.00;47.47;100095.64;1715343;80;22136;-75
2022/08/14 11:18:16;;;;;;;7.60;3.90;;;;;;;28.86;47.09;100088.73;1722025;80;21110;-75
2022/08/14 11:20:49;;;;;;;10.25;4.20;;;;;;;28.87;46.93;100079.38;1720190;82;21003;-75
2022/08/14 11:23:17;;;;;;;12.70;4.95;;;;;;;28.78;46.62;100086.09;1727194;82;20927;-74
2022/08/14 11:25:44;;;;;;;10.03;3.95;;;;;;;28.56;46.56;100090.53;1725424;80;21102;-75
2022/08/14 11:28:14;;;;;;;6.55;4.28;;;;;;;28.46;46.49;100089.30;1721276;82;21820;-74
2022/08/14 11:30:43;;;;;;;6.83;4.20;;;;;;;28.58;46.48;100086.91;1717898;82;21079;-75
2022/08/14 11:33:11;;;;;;;5.85;4.28;;;;;;;28.64;46.37;100072.82;1728990;82;21345;-76
2022/08/14 11:35:37;;;;;;;5.10;4.00;;;;;;;28.66;46.22;100075.28;1735150;80;21081;-77
2022/08/14 11:38:05;;;;;;;11.78;4.20;;;;;;;28.57;46.00;100067.47;1725420;80;21026;-78
2022/08/14 11:40:36;;;;;;;7.17;4.65;;;;;;;28.46;46.01;100082.44;1719405;80;21856;-78